Time;durP1;ratioP1;P1;durP2;ratioP2;P2;SDS_P1;SDS_P2;PMS_P1;PMS_P2;Temp;Humidity;BMP_temperature;BMP_pressure;BME280_temperature;BME280_humidity;BME280_pressure;Samples;Min_cycle;Max_cycle;Signal;HPM_P1;HPM_P2
2022/04/06 00:05:14;;;;;;;3.33;1.10;;;;;;;;;;20300366;29;20052;-81
2022/04/06 00:15:15;;;;;;;1.73;0.60;;;;;;;;;;20294046;29;20059;-82
2022/04/06 00:25:17;;;;;;;2.50;0.90;;;;;;;;;;20292192;29;20052;-82
2022/04/06 00:35:28;;;;;;;1.02;0.93;;;;;;;;;;20284086;29;20667;-81
2022/04/06 00:45:30;;;;;;;1.52;0.70;;;;;;;;;;20292288;29;20411;-82
2022/04/06 00:55:33;;;;;;;1.92;0.82;;;;;;;;;;20294711;29;20155;-82
2022/04/06 01:05:35;;;;;;;1.67;0.73;;;;;;;;;;20297243;29;20138;-84
2022/04/06 01:15:37;;;;;;;2.25;0.75;;;;;;;;;;20294155;28;20120;-84
2022/04/06 01:25:40;;;;;;;1.13;0.70;;;;;;;;;;20282249;29;20044;-83
2022/04/06 01:35:42;;;;;;;1.40;0.60;;;;;;;;;;20285666;29;20410;-82
2022/04/06 01:45:44;;;;;;;0.82;0.55;;;;;;;;;;20279852;29;20048;-83
2022/04/06 01:55:46;;;;;;;2.03;0.85;;;;;;;;;;20307911;29;20048;-82
2022/04/06 02:05:47;;;;;;;1.20;0.98;;;;;;;;;;20300005;29;20048;-82
2022/04/06 02:15:49;;;;;;;2.13;0.65;;;;;;;;;;20299955;29;20040;-82
2022/04/06 02:25:51;;;;;;;1.73;0.95;;;;;;;;;;20311506;29;20117;-82
2022/04/06 02:35:53;;;;;;;1.63;0.88;;;;;;;;;;20303739;29;20384;-82
2022/04/06 02:45:54;;;;;;;1.17;1.00;;;;;;;;;;20302017;29;20059;-81
2022/04/06 02:55:56;;;;;;;1.63;0.60;;;;;;;;;;20318808;29;20064;-82
2022/04/06 03:05:58;;;;;;;1.38;0.77;;;;;;;;;;20277937;29;20056;-83
2022/04/06 03:16:00;;;;;;;2.10;0.65;;;;;;;;;;20288441;29;20164;-85
2022/04/06 03:26:01;;;;;;;1.40;0.70;;;;;;;;;;20305959;29;20048;-83
2022/04/06 03:36:03;;;;;;;0.80;0.60;;;;;;;;;;20291424;29;20087;-82
2022/04/06 03:46:05;;;;;;;1.65;0.75;;;;;;;;;;20305680;29;20044;-84
2022/04/06 03:56:07;;;;;;;0.98;0.50;;;;;;;;;;20281791;29;20104;-83
2022/04/06 04:06:09;;;;;;;2.47;0.90;;;;;;;;;;20308928;29;20059;-83
2022/04/06 04:16:10;;;;;;;1.75;1.00;;;;;;;;;;20296604;28;20048;-83
2022/04/06 04:26:12;;;;;;;2.15;0.82;;;;;;;;;;20305744;29;20407;-83
2022/04/06 04:36:15;;;;;;;2.45;0.80;;;;;;;;;;20269190;29;20053;-84
2022/04/06 04:46:17;;;;;;;1.20;0.63;;;;;;;;;;20300763;29;20059;-83
2022/04/06 04:56:19;;;;;;;1.60;0.80;;;;;;;;;;20277704;29;20087;-85
2022/04/06 05:06:21;;;;;;;1.80;0.93;;;;;;;;;;20322069;29;20052;-82
2022/04/06 05:16:22;;;;;;;2.38;0.90;;;;;;;;;;20316286;29;20051;-83
2022/04/06 05:26:24;;;;;;;1.00;0.70;;;;;;;;;;20421387;29;20690;-82
2022/04/06 05:36:28;;;;;;;2.50;0.70;;;;;;;;;;20316234;29;20048;-83
2022/04/06 05:46:30;;;;;;;2.22;0.70;;;;;;;;;;20338578;29;20044;-83
2022/04/06 05:56:32;;;;;;;1.02;0.70;;;;;;;;;;20304524;29;20115;-80
2022/04/06 06:06:35;;;;;;;2.10;0.90;;;;;;;;;;20342082;29;20044;-81
2022/04/06 06:16:37;;;;;;;1.50;0.63;;;;;;;;;;20324863;29;20052;-80
2022/04/06 06:26:40;;;;;;;2.05;0.80;;;;;;;;;;20341707;29;20076;-80
2022/04/06 06:36:41;;;;;;;1.38;0.70;;;;;;;;;;20341467;29;20056;-80
2022/04/06 06:46:43;;;;;;;1.75;1.33;;;;;;;;;;20323563;29;20505;-80
2022/04/06 06:56:45;;;;;;;2.38;0.90;;;;;;;;;;20342457;29;20422;-82
2022/04/06 07:06:46;;;;;;;1.02;0.50;;;;;;;;;;20353929;29;20040;-82
2022/04/06 07:16:48;;;;;;;1.52;0.40;;;;;;;;;;20352996;28;20060;-82
2022/04/06 07:26:50;;;;;;;1.00;0.60;;;;;;;;;;20335303;29;20064;-81
2022/04/06 07:36:52;;;;;;;2.20;0.82;;;;;;;;;;20351491;29;20064;-82
2022/04/06 07:46:54;;;;;;;2.45;0.68;;;;;;;;;;20334401;29;20482;-82
2022/04/06 07:56:55;;;;;;;1.58;0.60;;;;;;;;;;20333684;29;20048;-82
2022/04/06 08:06:57;;;;;;;3.30;0.70;;;;;;;;;;20332722;29;20055;-81
2022/04/06 08:16:59;;;;;;;2.08;0.70;;;;;;;;;;20332236;29;20068;-81
2022/04/06 08:27:01;;;;;;;2.35;0.73;;;;;;;;;;20345864;29;20414;-81
2022/04/06 08:37:02;;;;;;;1.33;0.80;;;;;;;;;;20330744;29;20053;-82
2022/04/06 08:47:06;;;;;;;1.75;0.70;;;;;;;;;;20346504;29;20079;-82
2022/04/06 08:57:07;;;;;;;3.08;1.23;;;;;;;;;;20345643;29;20451;-80
2022/04/06 09:07:10;;;;;;;1.70;0.90;;;;;;;;;;20328516;29;20143;-80
2022/04/06 09:17:12;;;;;;;2.80;0.80;;;;;;;;;;20344566;29;20060;-81
2022/04/06 09:27:13;;;;;;;5.30;1.20;;;;;;;;;;20342913;29;20051;-82
2022/04/06 09:37:26;;;;;;;1.95;0.73;;;;;;;;;;20343403;29;20056;-81
2022/04/06 09:47:40;;;;;;;5.75;1.90;;;;;;;;;;20325925;29;20048;-82
2022/04/06 09:57:47;;;;;;;1.38;0.80;;;;;;;;;;20310027;29;20123;-82
2022/04/06 10:07:51;;;;;;;1.45;0.60;;;;;;;;;;20342287;29;20470;-81
2022/04/06 10:17:53;;;;;;;2.53;0.73;;;;;;;;;;20341526;28;20049;-81
2022/04/06 10:27:56;;;;;;;1.73;0.65;;;;;;;;;;20341363;29;20060;-81
2022/04/06 10:38:00;;;;;;;1.60;0.82;;;;;;;;;;20354406;29;20502;-81
2022/04/06 10:48:09;;;;;;;0.85;0.55;;;;;;;;;;20355386;29;20052;-79
2022/04/06 10:58:11;;;;;;;1.48;0.63;;;;;;;;;;20338037;29;20052;-81
2022/04/06 11:18:56;;;;;;;1.63;0.60;;;;;;;;;;20352947;28;20491;-81
2022/04/06 11:28:59;;;;;;;2.20;0.68;;;;;;;;;;20356638;29;20139;-80
2022/04/06 11:39:05;;;;;;;1.20;0.63;;;;;;;;;;20351985;29;20104;-81
2022/04/06 11:49:09;;;;;;;1.95;0.77;;;;;;;;;;20333538;29;20062;-81
2022/04/06 11:59:16;;;;;;;0.47;0.40;;;;;;;;;;20333651;29;20052;-82
2022/04/06 12:09:24;;;;;;;0.93;0.50;;;;;;;;;;20332923;29;20104;-82
2022/04/06 12:19:33;;;;;;;1.33;0.40;;;;;;;;;;20316201;29;20048;-82
2022/04/06 12:29:39;;;;;;;1.95;0.60;;;;;;;;;;20347954;29;20060;-82
2022/04/06 12:39:48;;;;;;;1.95;0.70;;;;;;;;;;20330423;29;20044;-81
2022/04/06 12:49:50;;;;;;;1.85;0.90;;;;;;;;;;20273312;29;20056;-80
2022/04/06 12:59:58;;;;;;;2.15;0.57;;;;;;;;;;20281257;29;20447;-81
2022/04/06 13:10:01;;;;;;;2.20;0.82;;;;;;;;;;20267183;29;20072;-81
2022/04/06 13:20:03;;;;;;;1.63;0.55;;;;;;;;;;20281130;29;20052;-81
2022/04/06 13:30:06;;;;;;;1.67;0.70;;;;;;;;;;20249162;29;20067;-81
2022/04/06 13:40:08;;;;;;;4.63;0.90;;;;;;;;;;20264718;29;20049;-81
2022/04/06 13:50:10;;;;;;;1.60;0.52;;;;;;;;;;20264707;29;20784;-82
2022/04/06 14:00:14;;;;;;;1.10;0.52;;;;;;;;;;20278309;29;20059;-82
2022/04/06 14:10:16;;;;;;;1.85;0.60;;;;;;;;;;20288308;29;20063;-81
2022/04/06 14:20:18;;;;;;;1.52;0.50;;;;;;;;;;20294642;29;20140;-85
2022/04/06 14:30:19;;;;;;;1.40;0.70;;;;;;;;;;20280011;29;20053;-81
2022/04/06 14:40:21;;;;;;;1.13;0.60;;;;;;;;;;20278008;29;20074;-81
2022/04/06 14:50:23;;;;;;;1.33;0.40;;;;;;;;;;20292830;29;20052;-81
2022/04/06 15:00:27;;;;;;;1.17;0.60;;;;;;;;;;20291233;29;20084;-81
2022/04/06 15:10:29;;;;;;;1.48;0.60;;;;;;;;;;20290551;29;20063;-81
2022/04/06 15:20:33;;;;;;;2.15;0.80;;;;;;;;;;20288519;29;20060;-81
2022/04/06 15:30:35;;;;;;;0.75;0.57;;;;;;;;;;20274491;29;20134;-81
2022/04/06 15:40:37;;;;;;;1.00;0.50;;;;;;;;;;20273634;29;20049;-81
2022/04/06 15:50:38;;;;;;;0.80;0.50;;;;;;;;;;20272985;29;20052;-81
2022/04/06 16:00:40;;;;;;;1.73;0.60;;;;;;;;;;20286663;29;20096;-81
2022/04/06 16:10:43;;;;;;;0.95;0.60;;;;;;;;;;20285911;29;20514;-81
2022/04/06 16:20:45;;;;;;;1.02;0.50;;;;;;;;;;20271489;29;20056;-81
2022/04/06 16:30:47;;;;;;;1.85;0.68;;;;;;;;;;20284523;29;20392;-80
2022/04/06 16:40:49;;;;;;;1.38;0.80;;;;;;;;;;20267860;29;20059;-80
2022/04/06 17:01:11;;;;;;;0.50;0.40;;;;;;;;;;20267709;29;20067;-81
2022/04/06 17:11:13;;;;;;;2.22;0.75;;;;;;;;;;20265621;29;20048;-81
2022/04/06 17:21:14;;;;;;;0.65;0.47;;;;;;;;;;20266572;29;20116;-80
2022/04/06 17:31:16;;;;;;;0.32;0.30;;;;;;;;;;20253673;29;20079;-83
2022/04/06 17:41:38;;;;;;;0.55;0.38;;;;;;;;;;20235232;29;20045;-84
2022/04/06 17:51:40;;;;;;;1.08;0.50;;;;;;;;;;20233002;29;20053;-85
2022/04/06 18:01:42;;;;;;;0.55;0.52;;;;;;;;;;20252389;29;20052;-82
2022/04/06 18:22:16;;;;;;;0.63;0.30;;;;;;;;;;20282033;29;20499;-83
2022/04/06 18:32:19;;;;;;;0.45;0.40;;;;;;;;;;20302398;29;20056;-82
2022/04/06 18:42:21;;;;;;;0.80;0.40;;;;;;;;;;20304158;29;20113;-83
2022/04/06 18:52:23;;;;;;;0.52;0.40;;;;;;;;;;20316186;29;20051;-82
2022/04/06 19:02:25;;;;;;;0.38;0.30;;;;;;;;;;20318718;29;20080;-82
2022/04/06 19:12:27;;;;;;;0.98;0.30;;;;;;;;;;20310062;29;20127;-82
2022/04/06 19:22:28;;;;;;;0.50;0.50;;;;;;;;;;20316647;29;20044;-82
2022/04/06 19:32:34;;;;;;;1.15;0.52;;;;;;;;;;20310266;29;20064;-82
2022/04/06 19:42:39;;;;;;;1.25;0.50;;;;;;;;;;20331982;29;20506;-82
2022/04/06 19:52:41;;;;;;;0.40;0.40;;;;;;;;;;20303756;29;20139;-82
2022/04/06 20:02:43;;;;;;;0.85;0.80;;;;;;;;;;20293353;29;20048;-82
2022/04/06 20:12:44;;;;;;;0.40;0.40;;;;;;;;;;20309905;29;20084;-82
2022/04/06 20:22:46;;;;;;;0.60;0.50;;;;;;;;;;20313742;29;20056;-82
2022/04/06 20:32:48;;;;;;;0.45;0.40;;;;;;;;;;20310367;29;20086;-81
2022/04/06 20:42:50;;;;;;;0.73;0.50;;;;;;;;;;20271797;29;20049;-82
2022/04/06 20:52:52;;;;;;;0.63;0.45;;;;;;;;;;20267588;29;20045;-82
2022/04/06 21:02:54;;;;;;;0.77;0.40;;;;;;;;;;20298110;29;20049;-82
2022/04/06 21:12:56;;;;;;;0.40;0.40;;;;;;;;;;20260681;29;20422;-81
2022/04/06 21:22:58;;;;;;;0.70;0.45;;;;;;;;;;20286452;29;20064;-81
2022/04/06 21:33:00;;;;;;;0.50;0.40;;;;;;;;;;20309810;29;20039;-82
2022/04/06 21:43:01;;;;;;;2.88;0.40;;;;;;;;;;20304976;29;20482;-81
2022/04/06 21:53:03;;;;;;;0.68;0.50;;;;;;;;;;20277665;29;20059;-81
2022/04/06 22:03:05;;;;;;;1.65;0.65;;;;;;;;;;20306217;29;20048;-81
2022/04/06 22:13:07;;;;;;;0.63;0.60;;;;;;;;;;20286656;29;20056;-81
2022/04/06 22:23:09;;;;;;;0.73;0.50;;;;;;;;;;20293028;29;20060;-81
2022/04/06 22:33:10;;;;;;;0.57;0.35;;;;;;;;;;20323814;29;20060;-81
2022/04/06 22:43:12;;;;;;;0.43;0.30;;;;;;;;;;20298675;29;20071;-81
2022/04/06 22:53:14;;;;;;;0.45;0.40;;;;;;;;;;20307645;29;20121;-82
2022/04/06 23:03:15;;;;;;;0.30;0.30;;;;;;;;;;20295704;29;20403;-82
2022/04/06 23:13:17;;;;;;;0.38;0.30;;;;;;;;;;20338324;29;20060;-83
2022/04/06 23:23:19;;;;;;;0.80;0.40;;;;;;;;;;20307386;29;20044;-83
2022/04/06 23:33:21;;;;;;;0.40;0.40;;;;;;;;;;20302400;29;20052;-82
2022/04/06 23:43:23;;;;;;;0.30;0.30;;;;;;;;;;20297097;29;20050;-81
2022/04/06 23:53:24;;;;;;;1.33;0.30;;;;;;;;;;20310207;29;20134;-81
